Springfield Branson National Airport
KSGF : now visible

Airfield :











YOU CAN JOIN US ON...

 
LOGIN :

Register | Disclaimer

   EN    FR    IT 

 









Legend :    VFR   Marginal VFR   IFR   Intensive IFR   Very Intensive IFR
Visi :
Ceiling :
>= 8 km
>= 3000ft
5 to 8 km
1000 to 3000 ft
1500m to 5 km
500 to 1000 ft
800 to 1500m
200 to 500 ft
< 800m
< 200 ft
Symbols :   Thunderstorms  Fog  Heavy snow  Heavy precipitations  Wind > 20 kt






- Airport Elevation : 1268 ft
- IATA code : SGF


KSGF - Springfield Branson National

CURRENT METAR :
  • 201609Z 15011KT 10SM OVC005 12/11 A3005 RMK AO2 T01170106

EXPIRED METARs :
  • 201552Z 15011KT 10SM OVC004 11/11 A3005 RMK AO2 RAE35 SLP178 P0001 T01110106
  • 201452Z 15005KT 4SM -RA BR OVC004 10/10 A3007 RMK AO2 LTG DSNT N RAB43 SLP186 P0000 60000 T01000100 55004
  • 201359Z 13008KT 4SM BR OVC004 09/09 A3006 RMK AO2 T00940089
  • 201351Z 12008KT 2 1/2SM BR OVC004 09/08 A3007 RMK AO2 SLP183 T00890083

TAF KSGF
Valid from the 20 at 12:00 until the 21 at 12:00 UTC


201147Z 2012/2112 10006KT P6SM VCSH OVC009
TEMPO 2012/2016 3SM SHRA BR OVC005
FM201600 16010KT P6SM OVC006
FM201800 19012G17KT P6SM OVC010
FM210000 22006KT P6SM VCSH OVC005
PROB30 2102/2108 3SM SHRA BR OVC003
KZKC FIR / North America



MET'MAP, your aeronautical weather chart ! - Copyright ORBIFLY December 2007 - Disclaimer

ORBIFLY MET'MAP TEAM :

Programming & Development : Alexandra Zaïnal
Concept & original design : Baudouin d'Aumeries
Assistance for programming : Marc-Olivier Méhu
Technical & hardware support : Manuel Goepfert

Contact : metmap@orbifly.com




SOURCES & CREDITS :

   NOAA       Earth
Advisory